Time;durP1;ratioP1;P1;durP2;ratioP2;P2;SDS_P1;SDS_P2;PMS_P1;PMS_P2;Temp;Humidity;BMP_temperature;BMP_pressure;BME280_temperature;BME280_humidity;BME280_pressure;Samples;Min_cycle;Max_cycle;Signal;HPM_P1;HPM_P2
2022/05/30 00:00:41;;;;;;;2.40;0.90;;;16.80;88.90;;;;;;5013865;28;20120;-75
2022/05/30 00:03:07;;;;;;;1.45;0.80;;;16.90;89.10;;;;;;5010633;28;20100;-75
2022/05/30 00:05:32;;;;;;;2.17;1.00;;;16.80;89.10;;;;;;5009325;28;20069;-75
2022/05/30 00:07:59;;;;;;;3.97;1.00;;;16.80;89.10;;;;;;5013143;28;20514;-75
2022/05/30 00:10:24;;;;;;;2.47;0.75;;;16.80;89.20;;;;;;5010404;28;20031;-74
2022/05/30 00:12:50;;;;;;;2.85;0.90;;;16.70;89.20;;;;;;5005709;28;20487;-75
2022/05/30 00:15:19;;;;;;;2.28;0.90;;;16.70;89.20;;;;;;4999969;28;20113;-75
2022/05/30 00:17:44;;;;;;;2.97;0.95;;;16.70;89.20;;;;;;4997123;28;20105;-75
2022/05/30 00:20:11;;;;;;;1.73;0.93;;;16.80;89.30;;;;;;5010005;28;20023;-75
2022/05/30 00:22:36;;;;;;;2.22;0.80;;;16.70;89.30;;;;;;5006461;28;20080;-75
2022/05/30 00:25:03;;;;;;;2.70;0.93;;;16.70;89.40;;;;;;5013551;28;20426;-75
2022/05/30 00:27:29;;;;;;;1.85;0.80;;;16.70;89.50;;;;;;5014332;28;20060;-75
2022/05/30 00:29:54;;;;;;;2.08;0.93;;;16.70;89.40;;;;;;5005566;28;20026;-75
2022/05/30 00:32:20;;;;;;;2.67;0.93;;;16.70;89.40;;;;;;4993932;28;20267;-74
2022/05/30 00:34:46;;;;;;;1.55;0.90;;;16.70;89.40;;;;;;5003018;28;20026;-75
2022/05/30 00:37:11;;;;;;;2.38;0.80;;;16.70;89.40;;;;;;4994799;28;20041;-74
2022/05/30 00:39:37;;;;;;;2.72;1.10;;;16.70;89.50;;;;;;4993721;28;20402;-74
2022/05/30 00:42:13;;;;;;;4.32;1.00;;;16.70;89.50;;;;;;4994792;28;20030;-75
2022/05/30 00:44:42;;;;;;;1.92;0.85;;;16.70;89.30;;;;;;4997741;28;20053;-75
2022/05/30 00:47:08;;;;;;;2.03;0.85;;;16.70;89.20;;;;;;5005065;28;20087;-75
2022/05/30 00:49:35;;;;;;;2.00;0.80;;;16.70;89.10;;;;;;5013469;28;20642;-74
2022/05/30 00:52:05;;;;;;;2.47;0.98;;;16.80;89.10;;;;;;5012970;28;20141;-75
2022/05/30 00:54:40;;;;;;;2.75;0.90;;;16.70;88.90;;;;;;5010711;28;20033;-74
2022/05/30 00:57:20;;;;;;;2.08;0.90;;;16.80;88.90;;;;;;4994327;28;20027;-75
2022/05/30 00:59:51;;;;;;;2.40;1.00;;;16.80;88.90;;;;;;4994729;28;20103;-76
2022/05/30 01:02:17;;;;;;;1.70;0.85;;;16.70;88.90;;;;;;5014715;28;20076;-76
2022/05/30 01:07:26;;;;;;;2.50;1.00;;;16.70;89.10;;;;;;5000829;28;20048;-74
2022/05/30 01:09:55;;;;;;;2.83;0.90;;;16.70;89.20;;;;;;5014725;28;20534;-75
2022/05/30 01:12:37;;;;;;;1.52;0.90;;;16.70;89.30;;;;;;4998979;28;20034;-75
2022/05/30 01:15:05;;;;;;;2.55;0.90;;;16.60;89.30;;;;;;5013017;28;20026;-75
2022/05/30 01:17:32;;;;;;;3.25;1.08;;;16.60;89.80;;;;;;5011166;28;20080;-76
2022/05/30 01:19:57;;;;;;;2.75;0.98;;;16.60;89.40;;;;;;5001936;28;20030;-74
2022/05/30 01:22:50;;;;;;;2.20;1.00;;;16.60;89.30;;;;;;4992008;28;20026;-75
2022/05/30 01:25:37;;;;;;;1.90;1.00;;;16.60;89.40;;;;;;4996776;28;20030;-75
2022/05/30 01:28:30;;;;;;;3.13;1.00;;;16.60;89.40;;;;;;5011217;28;20036;-75
2022/05/30 01:30:56;;;;;;;1.77;1.00;;;16.60;89.50;;;;;;5003820;28;20031;-75
2022/05/30 01:33:21;;;;;;;2.35;0.80;;;16.60;89.50;;;;;;5006437;28;20048;-76
2022/05/30 01:35:47;;;;;;;1.50;1.00;;;16.60;89.50;;;;;;5012745;28;20594;-77
2022/05/30 01:38:12;;;;;;;1.95;0.90;;;16.60;89.50;;;;;;5011756;28;20034;-76
2022/05/30 01:40:38;;;;;;;2.22;0.90;;;16.60;89.60;;;;;;4998602;28;20027;-76
2022/05/30 01:43:04;;;;;;;1.88;0.95;;;16.60;89.60;;;;;;5024463;28;20479;-75
2022/05/30 01:45:29;;;;;;;2.55;1.08;;;16.60;89.60;;;;;;5007569;28;20029;-76
2022/05/30 01:47:55;;;;;;;1.85;0.80;;;16.60;89.50;;;;;;5007884;28;20372;-75
2022/05/30 01:50:27;;;;;;;1.85;0.77;;;16.60;89.40;;;;;;4993352;28;20574;-75
2022/05/30 01:52:52;;;;;;;1.80;0.90;;;16.60;89.30;;;;;;4993249;28;20030;-76
2022/05/30 01:55:18;;;;;;;1.33;0.88;;;16.60;89.30;;;;;;4992150;28;20400;-75
2022/05/30 01:57:43;;;;;;;2.78;1.08;;;16.60;89.10;;;;;;4993031;28;20073;-76
2022/05/30 02:00:13;;;;;;;2.35;0.90;;;16.60;89.00;;;;;;4993221;28;20045;-74
2022/05/30 02:02:38;;;;;;;2.25;0.85;;;16.70;89.00;;;;;;4997640;28;20101;-74
2022/05/30 02:05:05;;;;;;;1.83;0.88;;;16.60;88.90;;;;;;5012984;28;20057;-75
2022/05/30 02:07:31;;;;;;;1.90;0.77;;;16.60;89.00;;;;;;5012210;28;20033;-75
2022/05/30 02:09:56;;;;;;;1.60;0.90;;;16.60;88.90;;;;;;5009610;28;20422;-75
2022/05/30 02:12:22;;;;;;;2.42;0.93;;;16.60;89.00;;;;;;5013157;28;20030;-75
2022/05/30 02:14:47;;;;;;;1.65;0.80;;;16.60;89.10;;;;;;5017098;28;20049;-75
2022/05/30 02:17:13;;;;;;;2.58;0.90;;;16.60;89.00;;;;;;5017172;28;20033;-75
2022/05/30 02:19:40;;;;;;;3.05;1.08;;;16.60;89.10;;;;;;5017034;28;20112;-76
2022/05/30 02:22:08;;;;;;;1.85;0.90;;;16.60;89.20;;;;;;5017219;28;20090;-75
2022/05/30 02:24:33;;;;;;;2.63;1.00;;;16.50;89.20;;;;;;5032222;28;20021;-75
2022/05/30 02:26:59;;;;;;;2.97;0.90;;;16.50;89.20;;;;;;5031893;28;20048;-75
2022/05/30 02:29:24;;;;;;;2.60;1.00;;;16.50;89.30;;;;;;5032530;28;20032;-75
2022/05/30 02:31:50;;;;;;;1.80;0.98;;;16.50;89.30;;;;;;5016928;28;20028;-75
2022/05/30 02:37:00;;;;;;;2.47;1.00;;;16.50;89.30;;;;;;5036442;28;20048;-75
2022/05/30 02:39:27;;;;;;;1.88;0.80;;;16.50;89.40;;;;;;5026523;28;20031;-75
2022/05/30 02:41:53;;;;;;;2.90;0.95;;;16.50;89.40;;;;;;5016285;28;20057;-75
2022/05/30 02:44:20;;;;;;;2.55;0.90;;;16.50;89.40;;;;;;5014526;28;20050;-75
2022/05/30 02:46:47;;;;;;;1.58;0.90;;;16.50;89.40;;;;;;5014046;28;20021;-74
2022/05/30 02:49:13;;;;;;;2.13;0.88;;;16.50;89.50;;;;;;5010501;28;20398;-74
2022/05/30 02:51:39;;;;;;;1.77;0.85;;;16.50;89.40;;;;;;4996207;28;20090;-76
2022/05/30 02:54:04;;;;;;;1.80;0.98;;;16.50;89.40;;;;;;4996131;28;20069;-75
2022/05/30 02:56:30;;;;;;;3.17;1.05;;;16.60;89.40;;;;;;4994860;28;20092;-76
2022/05/30 02:59:00;;;;;;;3.15;1.10;;;16.60;89.30;;;;;;4994444;28;20030;-74
2022/05/30 03:01:26;;;;;;;1.98;1.00;;;16.60;89.00;;;;;;4995971;28;20126;-75
2022/05/30 03:03:52;;;;;;;2.67;1.00;;;16.60;89.00;;;;;;4995856;28;20491;-76
2022/05/30 03:06:18;;;;;;;1.17;0.70;;;16.50;89.00;;;;;;4996229;28;20153;-75
2022/05/30 03:08:44;;;;;;;2.58;1.05;;;16.50;89.00;;;;;;4994622;28;20084;-75
2022/05/30 03:11:10;;;;;;;1.83;0.90;;;16.50;89.00;;;;;;4995905;28;20442;-75
2022/05/30 03:13:36;;;;;;;1.17;0.80;;;16.50;89.10;;;;;;4995898;28;20061;-75
2022/05/30 03:16:02;;;;;;;1.55;0.90;;;16.50;89.10;;;;;;4995861;28;20042;-75
2022/05/30 03:18:27;;;;;;;1.83;0.80;;;16.50;89.10;;;;;;4995782;28;20081;-75
2022/05/30 03:20:53;;;;;;;2.70;0.82;;;16.50;89.60;;;;;;4995591;28;20031;-74
2022/05/30 03:23:19;;;;;;;2.10;0.80;;;16.50;89.10;;;;;;4996084;28;20023;-75
2022/05/30 03:25:44;;;;;;;2.90;1.10;;;16.50;89.20;;;;;;4995915;28;20049;-75
2022/05/30 03:28:09;;;;;;;2.05;0.95;;;16.50;89.20;;;;;;4995763;28;20033;-75
2022/05/30 03:30:37;;;;;;;1.98;1.00;;;16.40;89.20;;;;;;4995236;28;20058;-75
2022/05/30 03:33:04;;;;;;;3.42;1.00;;;16.40;89.20;;;;;;4994801;28;20026;-75
2022/05/30 03:35:30;;;;;;;1.67;0.90;;;16.50;89.40;;;;;;4994839;28;20034;-74
2022/05/30 03:37:56;;;;;;;1.42;0.90;;;16.40;89.30;;;;;;4994227;28;20026;-75
2022/05/30 03:40:21;;;;;;;2.08;0.82;;;16.50;89.50;;;;;;4994871;28;20018;-75
2022/05/30 03:42:47;;;;;;;2.22;1.00;;;16.40;89.30;;;;;;4994774;28;20491;-74
2022/05/30 03:45:13;;;;;;;2.97;1.20;;;16.40;89.30;;;;;;4995919;28;20026;-75
2022/05/30 03:47:41;;;;;;;1.88;1.00;;;16.40;89.20;;;;;;4995512;28;20065;-75
2022/05/30 03:50:09;;;;;;;1.08;0.75;;;16.40;89.30;;;;;;4994858;28;20507;-75
2022/05/30 03:52:34;;;;;;;1.77;0.80;;;16.40;89.40;;;;;;4996070;28;20065;-75
2022/05/30 03:55:11;;;;;;;1.58;1.00;;;16.50;89.40;;;;;;5030866;28;20089;-76
2022/05/30 03:57:38;;;;;;;1.75;0.90;;;16.50;89.40;;;;;;5032203;28;20022;-75
2022/05/30 04:00:04;;;;;;;1.88;0.90;;;16.50;89.30;;;;;;5032736;28;20491;-75
2022/05/30 04:02:30;;;;;;;2.28;1.05;;;16.50;89.20;;;;;;5033942;28;20434;-75
2022/05/30 04:04:55;;;;;;;1.98;0.90;;;16.50;89.10;;;;;;5032716;28;20083;-75
2022/05/30 04:07:21;;;;;;;1.63;1.02;;;16.50;88.90;;;;;;5032528;28;20029;-76
2022/05/30 04:09:46;;;;;;;1.73;0.85;;;16.50;88.80;;;;;;5032782;28;20033;-76
2022/05/30 04:12:12;;;;;;;1.58;0.93;;;16.50;88.90;;;;;;5027934;28;20038;-75
2022/05/30 04:14:37;;;;;;;1.50;1.00;;;16.50;88.90;;;;;;5012174;28;20125;-75
2022/05/30 04:17:03;;;;;;;3.25;1.48;;;16.40;88.90;;;;;;5012623;28;20072;-74
2022/05/30 04:19:29;;;;;;;1.77;0.90;;;16.40;89.00;;;;;;5014412;28;20029;-74
2022/05/30 04:21:55;;;;;;;1.40;0.90;;;16.50;88.90;;;;;;5014334;28;20026;-74
2022/05/30 04:24:20;;;;;;;2.03;0.95;;;16.40;88.90;;;;;;5014483;28;20121;-75
2022/05/30 04:26:46;;;;;;;2.20;0.93;;;16.40;89.10;;;;;;5012804;28;20108;-74
2022/05/30 04:29:11;;;;;;;2.05;1.00;;;16.40;89.00;;;;;;5014194;28;20029;-75
2022/05/30 04:31:37;;;;;;;2.22;1.13;;;16.40;89.10;;;;;;5025251;28;20048;-75
2022/05/30 04:34:03;;;;;;;1.75;0.80;;;16.40;89.00;;;;;;5032741;28;20030;-75
2022/05/30 04:36:28;;;;;;;1.42;0.90;;;16.40;89.10;;;;;;5032979;28;20128;-76
2022/05/30 04:38:54;;;;;;;1.50;0.93;;;16.40;89.00;;;;;;5033620;28;20100;-75
2022/05/30 04:41:19;;;;;;;2.53;1.10;;;16.40;89.00;;;;;;5033106;28;20021;-74
2022/05/30 04:43:45;;;;;;;1.73;0.90;;;16.40;89.10;;;;;;5034209;28;20033;-75
2022/05/30 04:46:12;;;;;;;1.63;0.80;;;16.40;89.10;;;;;;5033490;28;20079;-75
2022/05/30 04:48:38;;;;;;;1.40;0.90;;;16.40;89.00;;;;;;5032774;28;20036;-76
2022/05/30 04:51:03;;;;;;;2.35;1.02;;;16.40;89.10;;;;;;5033259;28;20025;-75
2022/05/30 04:53:29;;;;;;;1.27;0.80;;;16.40;89.00;;;;;;5025491;28;20045;-75
2022/05/30 04:55:55;;;;;;;3.08;1.23;;;16.40;89.20;;;;;;5023276;28;20087;-77
2022/05/30 04:58:21;;;;;;;1.42;0.90;;;16.50;89.30;;;;;;5033764;28;20028;-76
2022/05/30 05:00:47;;;;;;;1.88;1.00;;;16.40;89.20;;;;;;5023308;28;20014;-75
2022/05/30 05:03:12;;;;;;;1.83;0.90;;;16.40;89.60;;;;;;5008534;28;20026;-75
2022/05/30 05:05:38;;;;;;;1.98;1.10;;;16.50;89.00;;;;;;5005613;28;20034;-75
2022/05/30 05:08:27;;;;;;;1.50;0.82;;;16.50;88.90;;;;;;5002950;28;20116;-76
2022/05/30 05:11:03;;;;;;;2.08;1.00;;;16.50;88.80;;;;;;5002287;28;20547;-76
2022/05/30 05:13:28;;;;;;;3.20;1.05;;;16.50;88.70;;;;;;4994862;28;20043;-76
2022/05/30 05:15:58;;;;;;;2.42;1.10;;;16.50;88.60;;;;;;5011636;28;20153;-76
2022/05/30 05:18:23;;;;;;;2.17;1.30;;;16.50;88.90;;;;;;5009548;28;20064;-75
2022/05/30 05:20:49;;;;;;;1.85;1.00;;;16.50;88.80;;;;;;5001214;28;20026;-75
2022/05/30 05:23:14;;;;;;;3.72;1.30;;;16.50;88.90;;;;;;4993248;28;20026;-75
2022/05/30 05:25:40;;;;;;;2.28;1.10;;;16.50;89.20;;;;;;5003512;28;20014;-75
2022/05/30 05:28:07;;;;;;;3.00;1.20;;;16.40;89.20;;;;;;5007699;28;20029;-75
2022/05/30 05:30:33;;;;;;;1.48;1.00;;;16.50;88.90;;;;;;5007717;28;20026;-76
2022/05/30 05:32:59;;;;;;;1.85;0.93;;;16.50;88.90;;;;;;4999330;28;20076;-75
2022/05/30 05:35:24;;;;;;;1.98;0.90;;;16.40;88.70;;;;;;5012818;28;20475;-76
2022/05/30 05:37:51;;;;;;;1.63;1.00;;;16.40;88.70;;;;;;5009595;28;20037;-75
2022/05/30 05:40:17;;;;;;;2.33;1.10;;;16.40;88.80;;;;;;5021114;28;20101;-75
2022/05/30 05:42:43;;;;;;;1.67;1.00;;;16.40;88.70;;;;;;5004151;28;20376;-76
2022/05/30 05:45:10;;;;;;;3.35;1.20;;;16.40;88.70;;;;;;5004944;28;20018;-75
2022/05/30 05:47:35;;;;;;;2.50;1.15;;;16.40;89.10;;;;;;5004785;28;20018;-76
2022/05/30 05:50:02;;;;;;;2.08;1.10;;;16.40;88.80;;;;;;5008650;28;20122;-76
2022/05/30 05:52:32;;;;;;;3.35;1.08;;;16.40;88.80;;;;;;4998081;28;20463;-76
2022/05/30 05:54:58;;;;;;;2.40;1.20;;;16.40;88.80;;;;;;5001836;28;20097;-75
2022/05/30 05:57:25;;;;;;;2.78;1.30;;;16.40;89.10;;;;;;5011639;28;20049;-74
2022/05/30 05:59:51;;;;;;;2.58;1.10;;;16.40;89.10;;;;;;5011505;28;20065;-75
2022/05/30 06:02:17;;;;;;;1.92;1.20;;;16.40;89.20;;;;;;5003614;28;20054;-75
2022/05/30 06:04:44;;;;;;;2.33;1.08;;;16.40;89.00;;;;;;5011961;28;20053;-76
2022/05/30 06:07:10;;;;;;;2.42;1.10;;;16.50;88.90;;;;;;5004970;28;20018;-75
2022/05/30 06:09:36;;;;;;;2.80;1.00;;;16.50;88.60;;;;;;4993711;28;20026;-74
2022/05/30 06:12:02;;;;;;;2.33;1.10;;;16.50;88.40;;;;;;5022775;28;20050;-75
2022/05/30 06:14:27;;;;;;;8.27;1.88;;;16.50;89.10;;;;;;5010249;28;20045;-76
2022/05/30 06:16:53;;;;;;;6.60;1.80;;;16.50;81.30;;;;;;5006618;28;20509;-76
2022/05/30 06:19:19;;;;;;;7.35;2.13;;;16.30;79.00;;;;;;5031799;28;20118;-76
2022/05/30 06:21:44;;;;;;;5.65;1.73;;;16.30;78.40;;;;;;5010983;28;20026;-75
2022/05/30 06:24:10;;;;;;;6.47;1.77;;;16.20;78.10;;;;;;4997392;28;20033;-75
2022/05/30 06:26:36;;;;;;;6.60;1.80;;;16.20;77.90;;;;;;4992368;28;20026;-75
2022/05/30 06:29:02;;;;;;;7.63;1.98;;;16.10;77.80;;;;;;5006241;28;20041;-76
2022/05/30 06:31:30;;;;;;;6.25;1.65;;;16.00;77.60;;;;;;5007218;28;20117;-76
2022/05/30 06:33:58;;;;;;;7.80;2.00;;;16.10;77.50;;;;;;4995927;28;20030;-78
2022/05/30 06:36:24;;;;;;;11.25;2.53;;;16.10;78.20;;;;;;4993925;28;20030;-75
2022/05/30 06:38:51;;;;;;;12.75;1.85;;;16.10;79.00;;;;;;5007372;28;20414;-77
2022/05/30 06:41:35;;;;;;;9.18;2.25;;;16.20;79.60;;;;;;5008844;28;20026;-74
2022/05/30 06:44:04;;;;;;;14.95;2.75;;;16.30;79.50;;;;;;4990869;28;20033;-75
2022/05/30 06:46:32;;;;;;;16.60;2.53;;;16.30;79.40;;;;;;5003043;28;20033;-76
2022/05/30 06:48:59;;;;;;;6.97;1.90;;;16.30;79.70;;;;;;5011601;28;20032;-76
2022/05/30 06:51:27;;;;;;;8.77;2.13;;;16.40;80.10;;;;;;5005166;28;20022;-76
2022/05/30 06:53:53;;;;;;;8.32;2.38;;;16.30;80.00;;;;;;5000836;28;20026;-75
2022/05/30 06:56:28;;;;;;;6.97;2.22;;;16.40;80.50;;;;;;5012725;28;20079;-76
2022/05/30 06:58:54;;;;;;;9.13;2.20;;;16.40;80.80;;;;;;5012140;28;20388;-76
2022/05/30 07:01:23;;;;;;;8.30;2.10;;;16.40;81.00;;;;;;5014191;28;20030;-75
2022/05/30 07:03:48;;;;;;;8.07;2.28;;;16.40;81.30;;;;;;5005674;28;20050;-75
2022/05/30 07:06:17;;;;;;;6.40;1.90;;;16.40;81.50;;;;;;4997677;28;20026;-76
2022/05/30 07:08:46;;;;;;;5.20;2.00;;;16.40;81.60;;;;;;5014811;28;20033;-75
2022/05/30 07:11:12;;;;;;;10.15;2.13;;;16.50;81.80;;;;;;5013842;28;20083;-76
2022/05/30 07:13:37;;;;;;;7.85;2.05;;;16.50;81.90;;;;;;5001963;28;20026;-75
2022/05/30 07:16:03;;;;;;;6.70;1.95;;;16.50;82.00;;;;;;5011314;28;20026;-76
2022/05/30 07:18:29;;;;;;;5.90;1.80;;;16.50;82.00;;;;;;4994904;28;20565;-75
2022/05/30 07:21:00;;;;;;;9.13;2.38;;;16.50;82.10;;;;;;5003171;28;20713;-76
2022/05/30 07:23:27;;;;;;;8.80;2.22;;;16.60;82.30;;;;;;5015037;28;20033;-75
2022/05/30 07:26:00;;;;;;;7.63;2.25;;;16.60;82.30;;;;;;5014627;28;20018;-75
2022/05/30 07:28:30;;;;;;;7.88;2.00;;;16.60;82.60;;;;;;5007209;28;20037;-75
2022/05/30 07:31:11;;;;;;;5.05;1.92;;;16.60;82.80;;;;;;4997630;28;20014;-76
2022/05/30 07:33:38;;;;;;;5.78;2.20;;;16.60;82.90;;;;;;5004034;28;20040;-75
2022/05/30 07:36:08;;;;;;;6.95;1.92;;;16.60;83.00;;;;;;5014211;28;20411;-75
2022/05/30 07:38:35;;;;;;;7.00;2.08;;;16.60;83.10;;;;;;5013961;28;20022;-76
2022/05/30 07:41:00;;;;;;;6.05;2.08;;;16.50;83.20;;;;;;5012655;28;20113;-76
2022/05/30 07:43:26;;;;;;;6.03;1.85;;;16.50;83.40;;;;;;5012832;28;20105;-75
2022/05/30 07:45:52;;;;;;;6.38;1.98;;;16.60;83.50;;;;;;5014023;28;20549;-75
2022/05/30 07:48:18;;;;;;;5.75;2.28;;;16.60;83.60;;;;;;5012513;28;20033;-75
2022/05/30 07:50:43;;;;;;;5.88;2.08;;;16.60;83.70;;;;;;5013466;28;20026;-75
2022/05/30 07:53:09;;;;;;;5.70;1.85;;;16.60;83.70;;;;;;5013571;28;20080;-75
2022/05/30 07:55:37;;;;;;;7.72;2.30;;;16.60;83.70;;;;;;5028932;28;20032;-75
2022/05/30 07:58:05;;;;;;;6.10;1.92;;;16.60;83.80;;;;;;5013094;28;20068;-75
2022/05/30 08:00:34;;;;;;;4.82;2.10;;;16.60;83.70;;;;;;5008239;28;20037;-75
2022/05/30 08:03:00;;;;;;;5.93;1.98;;;16.60;83.70;;;;;;5000494;28;20483;-75
2022/05/30 08:05:26;;;;;;;7.10;2.20;;;16.60;83.80;;;;;;4992753;28;20065;-75
2022/05/30 08:07:52;;;;;;;6.70;2.40;;;16.60;83.60;;;;;;4991117;28;20069;-75
2022/05/30 08:10:19;;;;;;;6.38;2.10;;;16.60;83.70;;;;;;4998097;28;20038;-75
2022/05/30 08:12:46;;;;;;;4.88;2.10;;;16.70;83.70;;;;;;5001420;28;20035;-74
2022/05/30 08:15:14;;;;;;;7.97;2.47;;;16.70;83.80;;;;;;4993980;28;20522;-76
2022/05/30 08:17:40;;;;;;;6.75;2.38;;;16.70;83.70;;;;;;4994082;28;20033;-75
2022/05/30 08:20:08;;;;;;;5.05;2.08;;;16.70;83.70;;;;;;4993070;28;20038;-76
2022/05/30 08:22:34;;;;;;;6.03;2.40;;;16.80;83.60;;;;;;4993797;28;20026;-75
2022/05/30 08:25:03;;;;;;;6.70;2.25;;;16.90;83.40;;;;;;4992624;28;20690;-75
2022/05/30 08:27:29;;;;;;;6.13;2.33;;;16.90;83.30;;;;;;4993381;28;20030;-76
2022/05/30 08:29:54;;;;;;;6.13;2.30;;;16.90;83.20;;;;;;4992299;28;20599;-75
2022/05/30 08:32:20;;;;;;;4.85;2.10;;;16.90;83.20;;;;;;4993566;28;20030;-75
2022/05/30 08:34:45;;;;;;;6.55;2.20;;;16.90;83.20;;;;;;4992878;28;20030;-75
2022/05/30 08:37:11;;;;;;;6.70;2.10;;;16.90;83.40;;;;;;4993330;28;20030;-76
2022/05/30 08:42:27;;;;;;;5.95;2.10;;;16.90;83.60;;;;;;4993795;28;20113;-75
2022/05/30 08:44:54;;;;;;;;;;;16.80;83.60;;;;;;4995844;28;20019;-76
2022/05/30 08:47:47;;;;;;;5.93;2.30;;;16.80;83.70;;;;;;5012176;28;19916;-75
2022/05/30 08:50:31;;;;;;;6.18;2.00;;;16.80;83.90;;;;;;4992182;28;20031;-76
2022/05/30 08:53:19;;;;;;;4.70;2.10;;;16.80;84.00;;;;;;4992126;28;20030;-76
2022/05/30 08:55:45;;;;;;;4.68;2.25;;;16.80;84.20;;;;;;4993204;28;20019;-76
2022/05/30 08:58:19;;;;;;;6.00;2.40;;;16.70;84.20;;;;;;4992843;28;20045;-75
2022/05/30 09:01:00;;;;;;;4.95;1.90;;;16.70;84.30;;;;;;4991790;28;20046;-75
2022/05/30 09:03:29;;;;;;;;;;;16.70;84.40;;;;;;4993643;28;20019;-75
2022/05/30 09:06:22;;;;;;;5.40;1.85;;;16.70;84.40;;;;;;4992848;28;19906;-75
2022/05/30 09:08:55;;;;;;;5.05;2.00;;;16.70;84.50;;;;;;4991886;28;20053;-75
2022/05/30 09:11:39;;;;;;;3.75;1.83;;;16.70;84.50;;;;;;4991776;28;20026;-75
2022/05/30 09:14:18;;;;;;;5.88;2.30;;;16.70;84.40;;;;;;4992985;28;20041;-75
2022/05/30 09:16:53;;;;;;;5.53;1.90;;;16.80;84.40;;;;;;4990803;28;20026;-75
2022/05/30 09:19:22;;;;;;;3.58;1.90;;;16.80;84.50;;;;;;4991643;28;20515;-75
2022/05/30 09:21:48;;;;;;;5.30;2.15;;;16.70;84.50;;;;;;4990630;28;20061;-76
2022/05/30 09:24:15;;;;;;;4.93;2.03;;;16.70;84.60;;;;;;4991439;28;20022;-76
2022/05/30 09:26:40;;;;;;;4.97;1.65;;;16.70;84.60;;;;;;4991266;28;20022;-76
2022/05/30 09:29:13;;;;;;;4.10;2.08;;;16.80;84.70;;;;;;4992679;28;20030;-76
2022/05/30 09:31:47;;;;;;;4.88;1.80;;;16.80;84.60;;;;;;4992815;28;20377;-75
2022/05/30 09:34:45;;;;;;;5.57;2.40;;;16.80;84.50;;;;;;4991599;28;20040;-75
2022/05/30 09:37:24;;;;;;;4.82;2.13;;;16.80;84.40;;;;;;4991030;28;20511;-75
2022/05/30 09:39:50;;;;;;;5.47;1.90;;;16.80;84.30;;;;;;4992430;28;20034;-75
2022/05/30 09:42:27;;;;;;;4.28;1.70;;;16.80;84.30;;;;;;4991429;28;20018;-75
2022/05/30 09:45:10;;;;;;;4.97;1.92;;;16.80;84.50;;;;;;4991512;28;20025;-75
2022/05/30 09:47:36;;;;;;;5.50;2.05;;;16.80;84.60;;;;;;4991381;28;20027;-76
2022/05/30 09:50:20;;;;;;;3.90;1.70;;;16.80;84.70;;;;;;4996166;28;20042;-75
2022/05/30 09:52:46;;;;;;;4.22;1.90;;;16.70;84.80;;;;;;4992457;28;20026;-76
2022/05/30 09:55:44;;;;;;;3.50;1.60;;;16.70;85.00;;;;;;4992555;28;20395;-75
2022/05/30 09:58:10;;;;;;;4.05;2.08;;;16.70;85.20;;;;;;4991512;28;20084;-75
2022/05/30 10:00:51;;;;;;;4.18;1.60;;;16.60;85.30;;;;;;4992392;28;20057;-75
2022/05/30 10:03:30;;;;;;;;;;;16.60;85.30;;;;;;5006226;28;20022;-75
2022/05/30 10:06:23;;;;;;;4.60;1.70;;;16.60;85.40;;;;;;4991326;28;19905;-76
2022/05/30 10:08:48;;;;;;;4.13;1.60;;;16.60;85.50;;;;;;4992003;28;20030;-75
2022/05/30 10:11:32;;;;;;;3.10;1.60;;;16.60;85.60;;;;;;4991157;28;20487;-75
2022/05/30 10:13:58;;;;;;;2.90;1.55;;;16.60;85.60;;;;;;4991195;28;20031;-74
2022/05/30 10:16:42;;;;;;;3.63;1.70;;;16.60;85.80;;;;;;4990937;28;20031;-76
2022/05/30 10:19:18;;;;;;;4.15;1.70;;;16.60;85.80;;;;;;4991039;28;20081;-75
2022/05/30 10:28:22;;;;;;;4.35;1.65;;;16.60;85.90;;;;;;4991851;28;20089;-75
2022/05/30 10:31:00;;;;;;;3.95;1.65;;;16.60;86.00;;;;;;4992439;28;20026;-75
2022/05/30 10:33:51;;;;;;;4.30;1.95;;;16.50;85.80;;;;;;4995867;28;20145;-75
2022/05/30 10:36:51;;;;;;;4.07;1.73;;;16.60;85.80;;;;;;4980047;28;20042;-75
2022/05/30 10:39:47;;;;;;;3.58;1.48;;;16.60;85.60;;;;;;4994568;28;20551;-75
2022/05/30 10:42:35;;;;;;;3.08;1.50;;;16.70;85.50;;;;;;4994499;28;20030;-76
2022/05/30 10:45:28;;;;;;;3.22;1.50;;;16.70;85.30;;;;;;4995539;28;20018;-75
2022/05/30 10:47:55;;;;;;;4.47;1.80;;;16.70;85.20;;;;;;4994014;28;20073;-75
2022/05/30 10:50:42;;;;;;;4.45;1.70;;;16.70;85.20;;;;;;4994474;28;20030;-75
2022/05/30 10:53:14;;;;;;;3.53;1.50;;;16.70;85.20;;;;;;4994008;28;20026;-76
2022/05/30 10:55:45;;;;;;;4.22;1.80;;;16.70;85.30;;;;;;4994888;28;20058;-75
2022/05/30 10:58:19;;;;;;;4.30;1.50;;;16.70;85.50;;;;;;4995593;28;20443;-76
2022/05/30 11:00:51;;;;;;;4.18;1.80;;;16.70;85.50;;;;;;4994336;28;20041;-76
2022/05/30 11:03:35;;;;;;;2.97;1.40;;;16.60;85.50;;;;;;4995625;28;20031;-76
2022/05/30 11:06:26;;;;;;;2.78;1.30;;;16.60;85.60;;;;;;4994255;28;20113;-75
2022/05/30 11:09:01;;;;;;;2.38;1.30;;;16.60;85.50;;;;;;4985431;28;20073;-75
2022/05/30 11:11:44;;;;;;;3.90;1.50;;;16.60;85.60;;;;;;4995200;28;20057;-75
2022/05/30 11:14:35;;;;;;;2.70;1.40;;;16.60;85.60;;;;;;4994953;28;20412;-76
2022/05/30 11:17:16;;;;;;;3.80;1.58;;;16.60;85.60;;;;;;4995033;28;20026;-75
2022/05/30 11:19:49;;;;;;;2.65;1.50;;;16.60;85.70;;;;;;4994992;28;20042;-75
2022/05/30 11:22:30;;;;;;;2.90;1.30;;;16.60;85.70;;;;;;4993852;28;20029;-76
2022/05/30 11:24:56;;;;;;;5.00;1.80;;;16.60;85.70;;;;;;4993588;28;20521;-76
2022/05/30 11:27:30;;;;;;;3.25;1.42;;;16.60;85.70;;;;;;4994660;28;20198;-74
2022/05/30 11:30:39;;;;;;;3.95;1.58;;;16.60;85.70;;;;;;4993688;28;20582;-76
2022/05/30 11:33:20;;;;;;;3.45;1.40;;;16.60;85.70;;;;;;4993644;28;20030;-75
2022/05/30 11:36:07;;;;;;;3.40;1.70;;;16.60;85.70;;;;;;4994904;28;20080;-75
2022/05/30 11:38:50;;;;;;;2.05;1.13;;;16.60;85.80;;;;;;4994467;28;20133;-76
2022/05/30 11:41:46;;;;;;;3.17;1.33;;;16.60;85.70;;;;;;4994727;28;20543;-75
2022/05/30 11:44:25;;;;;;;3.42;1.48;;;16.70;85.60;;;;;;5009879;28;20458;-75
2022/05/30 11:47:26;;;;;;;3.70;1.50;;;16.70;85.40;;;;;;5005917;28;20054;-75
2022/05/30 11:49:57;;;;;;;2.88;1.20;;;16.70;85.30;;;;;;4993679;28;20037;-75
2022/05/30 11:52:33;;;;;;;;;;;16.70;85.20;;;;;;4994781;28;20066;-76
2022/05/30 11:55:08;;;;;;;3.28;1.42;;;16.80;85.20;;;;;;4994363;28;19960;-75
2022/05/30 11:57:41;;;;;;;3.15;1.60;;;16.80;85.30;;;;;;4992759;28;20026;-76
2022/05/30 12:00:14;;;;;;;3.22;1.50;;;16.70;85.30;;;;;;4995604;28;20022;-75
2022/05/30 12:03:24;;;;;;;3.13;1.50;;;16.70;85.20;;;;;;5011356;28;20037;-75
2022/05/30 12:06:24;;;;;;;3.95;1.40;;;16.70;85.20;;;;;;5009825;28;20034;-76
2022/05/30 12:09:09;;;;;;;3.35;1.33;;;16.70;85.20;;;;;;5010942;28;20049;-76
2022/05/30 12:12:03;;;;;;;2.97;1.20;;;16.70;85.30;;;;;;5000398;28;20022;-75
2022/05/30 12:15:00;;;;;;;2.10;1.10;;;16.70;85.30;;;;;;5012261;28;20095;-76
2022/05/30 12:23:48;;;;;;;2.33;1.25;;;16.70;85.50;;;;;;5013486;28;19923;-74
2022/05/30 12:26:14;;;;;;;2.15;1.33;;;16.70;85.50;;;;;;5012033;28;20018;-76
2022/05/30 12:28:42;;;;;;;2.60;1.40;;;16.70;85.60;;;;;;5011290;28;20029;-76
2022/05/30 12:31:08;;;;;;;3.67;1.60;;;16.70;85.70;;;;;;5011893;28;20026;-76
2022/05/30 12:33:34;;;;;;;2.45;1.30;;;16.70;85.70;;;;;;5028534;28;20030;-76
2022/05/30 12:36:29;;;;;;;5.18;1.70;;;16.70;85.70;;;;;;5012632;28;20101;-75
2022/05/30 12:38:57;;;;;;;3.60;1.50;;;16.70;85.70;;;;;;5012959;28;20076;-76
2022/05/30 12:41:31;;;;;;;2.22;1.30;;;16.70;85.70;;;;;;5012568;28;20054;-76
2022/05/30 12:43:57;;;;;;;2.38;1.30;;;16.70;85.70;;;;;;5012522;28;20018;-76
2022/05/30 12:46:27;;;;;;;3.33;1.40;;;16.70;85.70;;;;;;5014060;28;20029;-76
2022/05/30 12:49:01;;;;;;;2.95;1.50;;;16.70;85.60;;;;;;5013258;28;20502;-76
2022/05/30 12:51:37;;;;;;;2.10;1.30;;;16.80;85.50;;;;;;5013354;28;20040;-75
2022/05/30 12:54:02;;;;;;;2.53;1.17;;;16.80;85.30;;;;;;5012892;28;20030;-76
2022/05/30 12:56:37;;;;;;;3.00;1.20;;;16.80;85.20;;;;;;5012416;28;20399;-75
2022/05/30 12:59:02;;;;;;;2.60;1.17;;;16.80;85.10;;;;;;5013226;28;20054;-75
2022/05/30 13:01:44;;;;;;;3.42;1.60;;;16.80;85.10;;;;;;5012019;28;20054;-75
2022/05/30 13:04:16;;;;;;;3.70;1.15;;;16.80;85.10;;;;;;5012071;28;20097;-75
2022/05/30 13:06:54;;;;;;;2.83;1.40;;;16.80;85.20;;;;;;5013064;28;20026;-76
2022/05/30 13:09:40;;;;;;;1.92;1.20;;;16.80;85.30;;;;;;5013181;28;20084;-76
2022/05/30 13:12:12;;;;;;;2.30;1.30;;;16.80;85.30;;;;;;5013448;28;20021;-76
2022/05/30 13:14:41;;;;;;;;;;;16.80;85.40;;;;;;5013719;28;20021;-76
2022/05/30 13:17:19;;;;;;;1.90;1.20;;;16.80;85.50;;;;;;5013509;28;19905;-75
2022/05/30 13:20:09;;;;;;;2.65;1.20;;;16.80;85.50;;;;;;5014217;28;20030;-76
2022/05/30 13:22:48;;;;;;;2.03;1.02;;;16.80;85.50;;;;;;5012884;28;20089;-76
2022/05/30 13:25:19;;;;;;;2.53;1.20;;;16.70;85.50;;;;;;5011562;28;20033;-76
2022/05/30 13:27:47;;;;;;;3.05;1.40;;;16.70;85.60;;;;;;5012613;28;20061;-75